Time;durP1;ratioP1;P1;durP2;ratioP2;P2;SDS_P1;SDS_P2;PMS_P1;PMS_P2;Temp;Humidity;BMP_temperature;BMP_pressure;BME280_temperature;BME280_humidity;BME280_pressure;Samples;Min_cycle;Max_cycle;Signal;HPM_P1;HPM_P2
2023/06/14 00:00:40;;;;;;;5.03;2.33;;;21.50;48.30;;;;;;5053120;28;20048;-31
2023/06/14 00:03:08;;;;;;;4.40;2.00;;;21.10;62.50;;;;;;5051632;28;20516;-30
2023/06/14 00:05:38;;;;;;;3.15;1.92;;;20.80;62.40;;;;;;5052743;28;20052;-30
2023/06/14 00:08:08;;;;;;;5.68;1.88;;;21.10;44.70;;;;;;5052313;28;20052;-30
2023/06/14 00:10:35;;;;;;;3.97;1.77;;;20.80;56.70;;;;;;5052197;28;20045;-30
2023/06/14 00:13:02;;;;;;;3.25;1.75;;;20.80;62.80;;;;;;5052359;28;20052;-30
2023/06/14 00:15:28;;;;;;;3.05;2.00;;;20.80;52.20;;;;;;5048810;28;20084;-30
2023/06/14 00:17:56;;;;;;;3.75;1.70;;;21.10;51.30;;;;;;5032455;28;20053;-30
2023/06/14 00:20:23;;;;;;;3.47;1.75;;;21.20;63.40;;;;;;5032519;28;20422;-31
2023/06/14 00:22:50;;;;;;;2.58;1.63;;;;;;;;;;5032141;28;20136;-30
2023/06/14 00:25:18;;;;;;;7.90;1.90;;;21.50;50.70;;;;;;5045898;28;20464;-30
2023/06/14 00:27:45;;;;;;;3.20;1.58;;;;;;;;;;5052129;28;20132;-31
2023/06/14 00:30:13;;;;;;;2.40;1.63;;;21.60;63.60;;;;;;5052391;28;20045;-31
2023/06/14 00:32:40;;;;;;;2.50;1.58;;;19.80;63.10;;;;;;5052116;28;20136;-30
2023/06/14 00:35:08;;;;;;;4.60;1.50;;;;;;;;;;5051939;28;20141;-32
2023/06/14 00:37:35;;;;;;;3.00;2.22;;;;;;;;;;5051810;28;20056;-30
2023/06/14 00:40:01;;;;;;;2.53;1.35;;;21.10;63.60;;;;;;5033529;28;20494;-30
2023/06/14 00:42:30;;;;;;;2.72;1.50;;;20.80;64.00;;;;;;5047428;28;20051;-30
2023/06/14 00:44:57;;;;;;;3.55;1.60;;;21.10;64.10;;;;;;5051948;28;20049;-30
2023/06/14 00:47:23;;;;;;;3.17;1.67;;;21.40;60.30;;;;;;5051412;28;20144;-31
2023/06/14 00:49:50;;;;;;;3.20;1.75;;;20.90;64.10;;;;;;5052007;28;20118;-30
2023/06/14 00:52:17;;;;;;;3.13;1.70;;;;;;;;;;5051458;28;20132;-31
2023/06/14 00:54:44;;;;;;;2.47;1.55;;;20.70;64.10;;;;;;5051944;28;20053;-30
2023/06/14 00:57:12;;;;;;;2.47;1.70;;;;;;;;;;5051931;28;20135;-32
2023/06/14 00:59:43;;;;;;;3.45;1.80;;;20.90;64.40;;;;;;5051377;28;20041;-30
2023/06/14 01:02:10;;;;;;;2.63;1.80;;;;;;;;;;5051639;28;20128;-32
2023/06/14 01:04:37;;;;;;;2.50;1.50;;;20.50;48.20;;;;;;5051916;28;20131;-31
2023/06/14 01:07:13;;;;;;;2.38;1.40;;;20.80;46.10;;;;;;5051615;28;20059;-32
2023/06/14 01:09:47;;;;;;;2.42;1.42;;;20.60;46.00;;;;;;5051567;28;20053;-31
2023/06/14 01:12:16;;;;;;;2.67;1.48;;;20.70;46.20;;;;;;5051635;28;20139;-32
2023/06/14 01:14:44;;;;;;;2.80;1.60;;;20.90;65.30;;;;;;5051479;28;20132;-31
2023/06/14 01:17:15;;;;;;;3.30;2.10;;;21.60;64.80;;;;;;5037396;28;20554;-30
2023/06/14 01:19:42;;;;;;;3.10;1.42;;;21.30;65.20;;;;;;5035808;28;20535;-30
2023/06/14 01:22:09;;;;;;;3.10;1.60;;;21.10;65.60;;;;;;5035683;28;20049;-30
2023/06/14 01:24:39;;;;;;;5.38;1.60;;;20.70;59.70;;;;;;5035794;28;20128;-30
2023/06/14 01:27:06;;;;;;;4.22;1.60;;;20.90;64.80;;;;;;5035579;28;20088;-30
2023/06/14 01:29:36;;;;;;;1.90;1.65;;;20.40;65.40;;;;;;5035655;28;20410;-30
2023/06/14 01:32:03;;;;;;;4.07;1.70;;;;;;;;;;5046055;28;20059;-32
2023/06/14 01:34:29;;;;;;;3.60;1.85;;;20.30;64.60;;;;;;5051976;28;20048;-30
2023/06/14 01:36:56;;;;;;;5.25;1.98;;;20.50;64.70;;;;;;5044414;28;20053;-30
2023/06/14 01:39:23;;;;;;;2.80;1.60;;;;;;;;;;5055256;28;20053;-30
2023/06/14 01:41:51;;;;;;;3.53;1.80;;;20.60;46.90;;;;;;5054233;28;20136;-30
2023/06/14 01:44:18;;;;;;;2.95;1.70;;;21.00;66.20;;;;;;5053696;28;20124;-30
2023/06/14 01:46:45;;;;;;;3.17;1.80;;;20.70;51.60;;;;;;5053747;28;20059;-30
2023/06/14 01:49:12;;;;;;;1.92;1.60;;;21.40;65.60;;;;;;5053710;28;20059;-30
2023/06/14 01:51:38;;;;;;;2.63;1.60;;;20.10;65.50;;;;;;5053872;28;20045;-30
2023/06/14 01:54:05;;;;;;;4.05;1.63;;;;;;;;;;5053582;28;20127;-32
2023/06/14 01:56:32;;;;;;;2.03;1.52;;;20.90;65.40;;;;;;5053560;28;20490;-30
2023/06/14 01:59:01;;;;;;;1.92;1.52;;;20.50;47.30;;;;;;5053494;28;20052;-31
2023/06/14 02:01:28;;;;;;;3.47;1.80;;;;;;;;;;5053551;28;20124;-31
2023/06/14 02:03:55;;;;;;;3.75;1.98;;;;;;;;;;5053445;28;20128;-31
2023/06/14 02:06:22;;;;;;;4.32;2.10;;;;;;;;;;5053146;28;20055;-31
2023/06/14 02:08:49;;;;;;;3.22;1.70;;;20.40;65.50;;;;;;5053462;28;20049;-30
2023/06/14 02:11:16;;;;;;;2.65;1.63;;;;;;;;;;5053366;28;20041;-32
2023/06/14 02:13:43;;;;;;;3.05;1.80;;;20.20;66.10;;;;;;5053012;28;20044;-30
2023/06/14 02:16:11;;;;;;;2.28;1.60;;;21.00;48.00;;;;;;5046509;28;20176;-30
2023/06/14 02:18:38;;;;;;;4.15;1.70;;;;;;;;;;5052470;28;20048;-32
2023/06/14 02:21:05;;;;;;;2.78;1.67;;;21.20;67.20;;;;;;5052988;28;20124;-30
2023/06/14 02:23:32;;;;;;;4.40;1.98;;;20.20;66.90;;;;;;5053217;28;20132;-30
2023/06/14 02:25:59;;;;;;;3.75;2.00;;;20.40;66.00;;;;;;5052857;28;20049;-30
2023/06/14 02:28:26;;;;;;;4.78;1.80;;;20.30;66.10;;;;;;5035385;28;20569;-30
2023/06/14 02:30:53;;;;;;;3.80;1.80;;;;;;;;;;5048297;28;20048;-31
2023/06/14 02:33:21;;;;;;;4.78;1.70;;;20.30;66.10;;;;;;5051188;28;20049;-30
2023/06/14 02:35:48;;;;;;;3.72;1.80;;;;;;;;;;5052940;28;20048;-32
2023/06/14 02:38:15;;;;;;;4.30;2.13;;;19.50;66.60;;;;;;5053132;28;20131;-30
2023/06/14 02:40:42;;;;;;;3.15;1.90;;;20.10;66.30;;;;;;5016275;28;1042266;-30
2023/06/14 02:43:09;;;;;;;2.45;1.77;;;19.60;64.40;;;;;;5053886;28;20049;-31
2023/06/14 02:45:36;;;;;;;5.88;1.80;;;19.90;66.40;;;;;;5054079;28;20223;-30
2023/06/14 02:48:02;;;;;;;4.90;2.05;;;20.30;66.60;;;;;;5053458;28;20574;-30
2023/06/14 02:50:30;;;;;;;2.63;1.80;;;20.50;66.80;;;;;;5048898;28;20124;-31
2023/06/14 02:52:58;;;;;;;3.05;1.80;;;20.00;63.80;;;;;;5033762;28;20128;-30
2023/06/14 02:55:26;;;;;;;3.25;2.10;;;20.50;66.90;;;;;;5034136;28;20053;-30
2023/06/14 02:57:53;;;;;;;3.33;1.70;;;19.90;67.70;;;;;;5034194;28;20050;-30
2023/06/14 03:00:20;;;;;;;3.67;1.90;;;20.30;67.50;;;;;;5033860;28;20041;-30
2023/06/14 03:02:47;;;;;;;2.60;1.70;;;;;;;;;;5033530;28;20049;-32
2023/06/14 03:05:14;;;;;;;4.25;1.92;;;19.90;67.40;;;;;;5040442;28;20055;-30
2023/06/14 03:07:44;;;;;;;3.55;1.80;;;19.30;66.90;;;;;;5053721;28;20486;-30
2023/06/14 03:10:12;;;;;;;3.00;1.75;;;;;;;;;;5053454;28;20433;-32
2023/06/14 03:12:39;;;;;;;3.58;2.10;;;19.90;67.50;;;;;;5053655;28;20053;-30
2023/06/14 03:15:07;;;;;;;4.70;2.00;;;19.70;61.20;;;;;;5053160;28;20067;-31
2023/06/14 03:17:35;;;;;;;2.97;1.73;;;;;;;;;;5033768;28;20140;-32
2023/06/14 03:20:02;;;;;;;4.10;1.95;;;;;;;;;;5033513;28;20075;-32
2023/06/14 03:22:29;;;;;;;2.65;1.90;;;21.20;67.60;;;;;;5042623;28;20129;-30
2023/06/14 03:24:59;;;;;;;2.72;1.90;;;20.10;48.90;;;;;;5053584;28;20133;-32
2023/06/14 03:27:28;;;;;;;2.60;1.95;;;20.10;67.20;;;;;;5053213;28;20048;-30
2023/06/14 03:29:55;;;;;;;2.63;1.90;;;20.40;67.30;;;;;;5064724;28;20397;-30
2023/06/14 03:32:21;;;;;;;3.90;2.03;;;19.70;67.00;;;;;;5072864;28;20127;-30
2023/06/14 03:34:50;;;;;;;2.30;1.70;;;;;;;;;;5052960;28;20044;-31
2023/06/14 03:37:17;;;;;;;3.20;1.90;;;20.00;61.80;;;;;;5051130;28;20053;-31
2023/06/14 03:39:46;;;;;;;4.63;1.90;;;20.50;68.20;;;;;;5050020;28;20678;-30
2023/06/14 03:42:15;;;;;;;3.33;1.92;;;19.30;57.70;;;;;;5046810;28;20524;-31
2023/06/14 03:44:41;;;;;;;6.32;2.10;;;21.30;67.50;;;;;;5052046;28;20055;-30
2023/06/14 03:47:08;;;;;;;4.20;1.90;;;21.40;59.70;;;;;;5050974;28;20123;-30
2023/06/14 03:49:36;;;;;;;2.60;1.90;;;20.60;67.80;;;;;;5052359;28;20053;-30
2023/06/14 03:52:03;;;;;;;4.05;2.03;;;20.50;58.60;;;;;;5052085;28;21570;-31
2023/06/14 03:54:32;;;;;;;3.22;2.00;;;20.70;67.80;;;;;;5049845;28;20052;-30
2023/06/14 03:56:59;;;;;;;2.65;1.70;;;;;;;;;;5051911;28;20508;-32
2023/06/14 03:59:27;;;;;;;4.05;1.98;;;20.30;66.40;;;;;;5051926;28;20075;-30
2023/06/14 04:01:54;;;;;;;4.80;2.00;;;20.50;67.30;;;;;;5051876;28;20045;-30
2023/06/14 04:04:29;;;;;;;5.20;2.20;;;;;;;;;;5051990;28;20577;-30
2023/06/14 04:06:56;;;;;;;4.15;2.30;;;20.10;66.60;;;;;;5052343;28;20124;-31
2023/06/14 04:09:24;;;;;;;2.72;1.88;;;20.60;66.60;;;;;;5051990;28;20490;-30
2023/06/14 04:11:51;;;;;;;2.60;1.98;;;20.90;67.50;;;;;;5052026;28;20045;-30
2023/06/14 04:14:19;;;;;;;3.85;1.80;;;20.80;66.90;;;;;;5051546;28;20049;-30
2023/06/14 04:16:47;;;;;;;4.07;2.20;;;20.70;48.70;;;;;;5038489;28;20136;-31
2023/06/14 04:19:14;;;;;;;3.17;2.10;;;;;;;;;;5032466;28;20045;-31
2023/06/14 04:21:40;;;;;;;3.25;2.10;;;21.00;67.50;;;;;;5032229;28;20048;-30
2023/06/14 04:24:13;;;;;;;4.65;2.40;;;19.90;66.70;;;;;;5041728;28;20695;-30
2023/06/14 04:26:40;;;;;;;6.72;2.22;;;;;;;;;;5063787;28;20087;-32
2023/06/14 04:29:07;;;;;;;4.88;2.40;;;;;;;;;;5071910;28;20108;-30
2023/06/14 04:31:37;;;;;;;4.22;2.22;;;;;;;;;;5055795;28;20504;-31
2023/06/14 04:34:06;;;;;;;5.63;2.17;;;20.30;67.60;;;;;;5051526;28;20053;-30
2023/06/14 04:36:34;;;;;;;6.40;2.85;;;21.30;67.80;;;;;;5051515;28;20048;-30
2023/06/14 04:39:03;;;;;;;5.75;2.00;;;;;;;;;;5034258;28;20156;-30
2023/06/14 04:41:30;;;;;;;2.90;2.30;;;19.50;68.20;;;;;;5051834;28;20041;-30
2023/06/14 04:44:01;;;;;;;6.30;2.40;;;20.10;68.60;;;;;;5051772;28;20055;-30
2023/06/14 04:46:28;;;;;;;3.42;2.30;;;19.90;69.00;;;;;;5051703;28;20067;-30
2023/06/14 04:48:55;;;;;;;6.10;2.50;;;;;;;;;;5051547;28;20079;-31
2023/06/14 04:51:29;;;;;;;3.67;2.28;;;20.30;68.50;;;;;;5051775;28;20045;-30
2023/06/14 04:53:56;;;;;;;3.60;2.30;;;20.90;69.30;;;;;;5051516;28;20095;-30
2023/06/14 04:56:24;;;;;;;4.72;2.30;;;20.10;65.60;;;;;;5051812;28;20045;-31
2023/06/14 04:58:51;;;;;;;4.97;2.17;;;20.40;67.80;;;;;;5051639;28;20105;-30
2023/06/14 05:01:18;;;;;;;4.93;2.15;;;20.20;69.00;;;;;;5051364;28;20084;-30
2023/06/14 05:03:48;;;;;;;4.97;2.40;;;;;;;;;;5051482;28;20140;-32
2023/06/14 05:06:15;;;;;;;5.03;2.42;;;;;;;;;;5051806;28;20048;-31
2023/06/14 05:08:43;;;;;;;3.85;2.20;;;20.30;69.10;;;;;;5051883;28;20148;-30
2023/06/14 05:11:10;;;;;;;4.10;2.30;;;19.90;68.90;;;;;;5051462;28;20124;-30
2023/06/14 05:13:37;;;;;;;4.70;2.35;;;19.30;69.10;;;;;;5051359;28;20048;-30
2023/06/14 05:16:04;;;;;;;3.75;2.33;;;19.80;53.00;;;;;;5043420;28;20077;-30
2023/06/14 05:18:30;;;;;;;3.70;2.20;;;20.30;69.70;;;;;;5033927;28;20195;-30
2023/06/14 05:20:57;;;;;;;3.80;2.40;;;;;;;;;;5059064;28;20410;-33
2023/06/14 05:23:24;;;;;;;3.40;2.70;;;20.20;69.90;;;;;;5067043;28;20159;-30
2023/06/14 05:25:52;;;;;;;5.65;2.65;;;19.70;68.90;;;;;;5071719;28;20054;-30
2023/06/14 05:28:20;;;;;;;5.63;2.40;;;19.10;65.60;;;;;;5071665;28;20056;-31
2023/06/14 05:30:47;;;;;;;3.55;2.35;;;20.10;69.70;;;;;;5071450;28;20041;-30
2023/06/14 05:33:14;;;;;;;4.40;2.90;;;;;;;;;;5071122;28;20106;-32
2023/06/14 05:35:41;;;;;;;3.75;2.17;;;20.20;69.60;;;;;;5063688;28;20136;-30
2023/06/14 05:38:07;;;;;;;3.10;2.20;;;20.10;64.10;;;;;;5051170;28;20404;-30
2023/06/14 05:40:34;;;;;;;8.85;2.75;;;;;;;;;;5051159;28;20083;-31
2023/06/14 05:43:02;;;;;;;6.22;2.38;;;20.00;70.10;;;;;;5051488;28;20052;-30
2023/06/14 05:45:29;;;;;;;3.55;2.20;;;20.40;54.10;;;;;;5050742;28;20131;-32
2023/06/14 05:47:56;;;;;;;5.32;2.42;;;;;;;;;;5051259;28;20073;-31
2023/06/14 05:50:24;;;;;;;3.45;2.50;;;;;;;;;;5050486;28;20053;-32
2023/06/14 05:52:51;;;;;;;3.25;2.45;;;;;;;;;;5031291;28;20120;-31
2023/06/14 05:55:18;;;;;;;4.97;2.40;;;20.10;51.60;;;;;;5031477;28;20045;-32
2023/06/14 05:57:45;;;;;;;6.43;2.38;;;;;;;;;;5031110;28;20053;-31
2023/06/14 06:00:15;;;;;;;3.53;2.50;;;20.30;70.30;;;;;;5031273;28;20124;-32
2023/06/14 06:02:43;;;;;;;4.50;2.90;;;20.00;69.80;;;;;;5033081;28;20053;-32
2023/06/14 06:05:09;;;;;;;4.70;2.65;;;21.00;69.90;;;;;;5040867;28;20064;-32
2023/06/14 06:07:36;;;;;;;3.97;2.60;;;21.10;70.00;;;;;;5054599;28;20051;-32
2023/06/14 06:10:03;;;;;;;2.88;2.10;;;19.80;54.00;;;;;;5054871;28;20136;-32
2023/06/14 06:12:30;;;;;;;4.22;2.50;;;20.10;69.80;;;;;;5054219;28;20140;-32
2023/06/14 06:14:57;;;;;;;4.07;2.33;;;;;;;;;;5054615;28;20069;-32
2023/06/14 06:17:26;;;;;;;4.53;2.40;;;20.10;69.20;;;;;;5052188;28;20135;-32
2023/06/14 06:19:52;;;;;;;6.75;2.63;;;20.20;69.90;;;;;;5055051;28;20127;-32
2023/06/14 06:22:19;;;;;;;5.63;2.30;;;;;;;;;;5054087;28;20124;-31
2023/06/14 06:24:46;;;;;;;4.60;2.30;;;;;;;;;;5054512;28;20045;-32
2023/06/14 06:27:14;;;;;;;5.53;2.47;;;;;;;;;;5043367;28;20053;-31
2023/06/14 06:29:42;;;;;;;6.90;2.42;;;20.20;70.10;;;;;;5048997;28;20053;-32
2023/06/14 06:32:09;;;;;;;3.83;2.33;;;20.70;69.60;;;;;;5054301;28;20397;-32
2023/06/14 06:34:37;;;;;;;3.97;2.40;;;20.40;51.60;;;;;;5054687;28;20057;-32
2023/06/14 06:37:04;;;;;;;6.03;2.30;;;;;;;;;;5054071;28;20064;-32
2023/06/14 06:39:31;;;;;;;4.68;2.63;;;20.20;69.00;;;;;;5053950;28;20056;-32
2023/06/14 06:41:57;;;;;;;4.43;2.40;;;20.30;69.10;;;;;;5053942;28;20581;-33
2023/06/14 06:44:24;;;;;;;4.20;2.42;;;20.10;61.90;;;;;;5053507;28;20059;-31
2023/06/14 06:46:51;;;;;;;3.28;2.00;;;20.90;69.20;;;;;;5054227;28;20132;-32
2023/06/14 06:49:18;;;;;;;6.25;2.70;;;19.80;69.60;;;;;;5054232;28;20045;-32
2023/06/14 06:52:00;;;;;;;2.38;2.10;;;20.90;57.20;;;;;;5053227;28;20052;-31
2023/06/14 06:54:27;;;;;;;5.15;2.30;;;;;;;;;;5054057;28;20059;-31
2023/06/14 06:56:53;;;;;;;4.00;2.67;;;19.90;68.60;;;;;;5053128;28;20136;-32
2023/06/14 06:59:20;;;;;;;3.40;2.28;;;20.60;69.80;;;;;;5053971;28;20052;-32
2023/06/14 07:01:47;;;;;;;6.85;2.65;;;20.60;69.60;;;;;;5053634;28;20047;-32
2023/06/14 07:04:14;;;;;;;3.67;2.40;;;20.80;68.90;;;;;;5053998;28;20140;-32
2023/06/14 07:06:41;;;;;;;5.97;2.20;;;;;;;;;;5053738;28;20060;-32
2023/06/14 07:09:12;;;;;;;4.18;2.38;;;20.30;68.70;;;;;;5053770;28;20053;-32
2023/06/14 07:11:39;;;;;;;6.03;2.30;;;20.90;52.10;;;;;;5053127;28;20049;-30
2023/06/14 07:14:06;;;;;;;5.20;2.42;;;20.60;68.70;;;;;;5039168;28;20145;-30
2023/06/14 07:16:32;;;;;;;4.60;2.30;;;21.10;70.00;;;;;;5052040;28;20048;-30
2023/06/14 07:19:00;;;;;;;2.90;2.33;;;20.80;51.40;;;;;;5053623;28;20132;-30
2023/06/14 07:21:26;;;;;;;5.25;2.50;;;20.50;69.10;;;;;;5036025;28;20041;-30
2023/06/14 07:23:53;;;;;;;4.70;2.22;;;20.90;51.40;;;;;;5033521;28;20079;-31
2023/06/14 07:26:21;;;;;;;3.33;2.58;;;20.80;69.50;;;;;;5050571;28;20078;-30
2023/06/14 07:28:48;;;;;;;4.65;1.95;;;20.80;68.60;;;;;;5053660;28;20136;-30
2023/06/14 07:31:15;;;;;;;4.90;2.22;;;20.70;68.40;;;;;;5052870;28;20106;-30
2023/06/14 07:33:42;;;;;;;5.65;2.30;;;20.60;63.10;;;;;;5051594;28;20212;-30
2023/06/14 07:36:09;;;;;;;4.70;2.30;;;19.80;67.70;;;;;;5051688;28;20581;-30
2023/06/14 07:38:36;;;;;;;3.47;2.25;;;;;;;;;;5049631;28;20582;-31
2023/06/14 07:41:03;;;;;;;4.75;2.10;;;;;;;;;;5052657;28;20064;-30
2023/06/14 07:43:31;;;;;;;6.78;2.28;;;21.10;50.80;;;;;;5051656;28;20143;-30
2023/06/14 07:45:58;;;;;;;2.90;2.00;;;21.20;57.10;;;;;;5052818;28;20053;-30
2023/06/14 07:48:25;;;;;;;5.82;2.20;;;21.10;68.50;;;;;;5052957;28;20055;-30
2023/06/14 07:50:52;;;;;;;3.88;2.08;;;;;;;;;;5052859;28;20128;-30
2023/06/14 07:53:18;;;;;;;4.35;2.13;;;22.30;65.70;;;;;;5052593;28;20139;-30
2023/06/14 07:55:47;;;;;;;3.92;2.22;;;21.50;65.10;;;;;;5052239;28;20128;-30
2023/06/14 07:58:14;;;;;;;2.53;2.10;;;20.60;68.50;;;;;;5052876;28;20063;-30
2023/06/14 08:00:42;;;;;;;2.70;1.90;;;21.30;50.60;;;;;;5052594;28;20149;-30
2023/06/14 08:03:09;;;;;;;3.55;2.20;;;;;;;;;;5051613;28;20124;-30
2023/06/14 08:05:37;;;;;;;2.90;2.10;;;;;;;;;;5051986;28;20055;-31
2023/06/14 08:08:04;;;;;;;6.80;2.53;;;21.90;68.70;;;;;;5050471;28;20132;-30
2023/06/14 08:10:31;;;;;;;4.93;2.22;;;;;;;;;;5032466;28;20560;-31
2023/06/14 08:12:57;;;;;;;3.75;2.10;;;21.20;67.40;;;;;;5043446;28;20406;-30
2023/06/14 08:15:24;;;;;;;4.45;2.22;;;21.10;68.20;;;;;;5049495;28;20179;-30
2023/06/14 08:17:52;;;;;;;4.13;2.42;;;21.40;50.00;;;;;;5032256;28;20132;-31
2023/06/14 08:20:19;;;;;;;3.67;2.60;;;;;;;;;;5032225;28;20425;-30
2023/06/14 08:22:47;;;;;;;4.45;2.25;;;21.30;67.00;;;;;;5032456;28;20124;-30
2023/06/14 08:25:13;;;;;;;4.18;2.53;;;21.10;65.80;;;;;;5031879;28;20053;-30
2023/06/14 08:27:41;;;;;;;3.45;2.40;;;21.50;66.80;;;;;;5038168;28;20477;-30
2023/06/14 08:30:09;;;;;;;4.70;2.13;;;21.20;67.00;;;;;;5051493;28;20528;-30
2023/06/14 08:32:36;;;;;;;3.90;2.10;;;21.20;67.60;;;;;;5051644;28;20044;-30
2023/06/14 08:35:06;;;;;;;3.67;2.20;;;21.10;62.80;;;;;;5046131;28;20044;-30
2023/06/14 08:37:33;;;;;;;2.47;2.05;;;21.90;67.30;;;;;;5041409;28;20049;-30
2023/06/14 08:40:00;;;;;;;3.20;2.03;;;;;;;;;;5037179;28;20490;-30
2023/06/14 08:42:27;;;;;;;2.45;2.00;;;22.10;67.00;;;;;;5041604;28;20128;-30
2023/06/14 08:44:54;;;;;;;5.47;2.20;;;;;;;;;;5051349;28;20444;-31
2023/06/14 08:47:21;;;;;;;4.18;2.28;;;21.30;67.30;;;;;;5051847;28;20044;-30
2023/06/14 08:49:49;;;;;;;7.05;1.98;;;;;;;;;;5051106;28;20561;-31
2023/06/14 08:52:18;;;;;;;2.95;1.88;;;21.70;66.80;;;;;;5051462;28;20076;-30
2023/06/14 08:54:45;;;;;;;5.43;2.20;;;21.60;67.20;;;;;;5051359;28;20123;-30
2023/06/14 08:57:15;;;;;;;5.80;1.98;;;21.40;67.10;;;;;;5051617;28;20051;-30
2023/06/14 08:59:45;;;;;;;5.28;2.05;;;22.20;66.90;;;;;;5048604;28;20048;-30
2023/06/14 09:02:13;;;;;;;3.50;2.20;;;22.10;67.40;;;;;;5051024;28;20556;-31
2023/06/14 09:04:39;;;;;;;2.65;1.75;;;22.50;67.70;;;;;;5047397;28;20051;-31
2023/06/14 09:07:06;;;;;;;4.72;2.00;;;22.00;49.20;;;;;;5051564;28;20504;-31
2023/06/14 09:09:34;;;;;;;2.88;1.90;;;23.50;50.00;;;;;;5051827;28;20103;-31
2023/06/14 09:12:01;;;;;;;2.95;1.90;;;;;;;;;;5050169;28;20055;-33
2023/06/14 09:14:28;;;;;;;3.67;2.40;;;21.90;62.30;;;;;;5033888;28;20132;-30
2023/06/14 09:16:55;;;;;;;4.38;2.05;;;22.30;57.30;;;;;;5036431;28;20057;-31
2023/06/14 09:19:25;;;;;;;4.80;2.00;;;23.10;66.70;;;;;;5033082;28;20055;-31
2023/06/14 09:21:52;;;;;;;3.75;2.10;;;22.70;67.10;;;;;;5032435;28;20117;-31
2023/06/14 09:24:19;;;;;;;3.38;1.90;;;21.70;54.00;;;;;;5031623;28;20045;-31
2023/06/14 09:26:49;;;;;;;4.72;1.90;;;22.30;66.50;;;;;;5036374;28;20045;-31
2023/06/14 09:29:17;;;;;;;2.10;1.90;;;21.70;65.70;;;;;;5042421;28;20103;-30
2023/06/14 09:31:44;;;;;;;3.75;1.73;;;21.70;65.60;;;;;;5051188;28;20490;-30
2023/06/14 09:34:11;;;;;;;3.00;1.73;;;22.10;65.90;;;;;;5050995;28;20135;-30
2023/06/14 09:36:38;;;;;;;3.92;1.85;;;22.40;66.50;;;;;;5050664;28;20049;-31
2023/06/14 09:39:06;;;;;;;3.92;2.00;;;22.10;66.60;;;;;;5055282;28;20053;-31
2023/06/14 09:41:33;;;;;;;3.85;2.10;;;22.50;60.40;;;;;;5036042;28;20056;-30
2023/06/14 09:44:02;;;;;;;3.13;1.90;;;21.80;49.50;;;;;;5035139;28;20053;-31
2023/06/14 09:46:29;;;;;;;4.78;1.95;;;21.70;65.90;;;;;;5035555;28;20053;-30
2023/06/14 09:48:56;;;;;;;3.08;2.10;;;;;;;;;;5035191;28;20080;-31
2023/06/14 09:51:23;;;;;;;2.17;1.73;;;22.60;65.60;;;;;;5035014;28;20053;-30
2023/06/14 09:53:49;;;;;;;3.92;1.80;;;22.50;50.00;;;;;;5034813;28;20042;-30
2023/06/14 09:56:17;;;;;;;5.50;1.70;;;21.50;59.40;;;;;;5035099;28;20080;-31
2023/06/14 09:58:43;;;;;;;2.60;1.83;;;22.70;65.40;;;;;;5053529;28;20124;-30
2023/06/14 10:01:13;;;;;;;5.07;1.63;;;22.40;48.10;;;;;;5047965;28;20050;-31
2023/06/14 10:03:41;;;;;;;4.45;2.00;;;;;;;;;;5035050;28;20045;-32
2023/06/14 10:06:08;;;;;;;6.15;2.10;;;;;;;;;;5035529;28;20534;-32
2023/06/14 10:08:35;;;;;;;2.25;1.80;;;22.10;64.80;;;;;;5049028;28;20140;-33
2023/06/14 10:11:02;;;;;;;4.35;1.92;;;21.70;64.50;;;;;;5054721;28;20123;-33
2023/06/14 10:13:29;;;;;;;1.70;1.52;;;22.50;59.50;;;;;;5052867;28;20053;-33
2023/06/14 10:15:59;;;;;;;3.05;1.70;;;22.70;64.90;;;;;;5047607;28;20096;-33
2023/06/14 10:18:32;;;;;;;4.03;1.80;;;22.10;64.60;;;;;;5035721;28;20394;-33
2023/06/14 10:21:07;;;;;;;2.60;1.70;;;22.60;47.60;;;;;;5034445;28;20045;-32
2023/06/14 10:23:33;;;;;;;3.42;1.55;;;21.80;65.10;;;;;;5034775;28;20077;-33
2023/06/14 10:26:01;;;;;;;3.03;1.77;;;22.50;65.00;;;;;;5038071;28;20045;-33
2023/06/14 10:28:30;;;;;;;2.15;1.63;;;22.40;64.50;;;;;;5043267;28;20045;-33
2023/06/14 10:31:04;;;;;;;2.83;1.63;;;22.60;47.50;;;;;;5044992;28;20087;-32
2023/06/14 10:33:33;;;;;;;2.47;1.77;;;22.60;48.90;;;;;;5049248;28;20041;-33
2023/06/14 10:36:27;;;;;;;2.95;1.92;;;23.50;60.80;;;;;;5035942;28;20553;-33
2023/06/14 10:39:02;;;;;;;2.70;1.70;;;22.40;64.40;;;;;;5044690;28;20049;-33
2023/06/14 10:41:29;;;;;;;;;;;22.70;47.90;;;;;;5034575;28;20053;-31
2023/06/14 10:44:33;;;;;;;2.50;1.90;;;22.10;65.20;;;;;;5032644;28;19921;-33
2023/06/14 10:47:00;;;;;;;3.63;1.83;;;22.60;62.10;;;;;;5034252;28;20077;-33
2023/06/14 10:49:42;;;;;;;2.65;1.70;;;22.70;47.50;;;;;;5033800;28;20515;-32
2023/06/14 10:52:16;;;;;;;2.97;1.50;;;22.80;65.20;;;;;;5053515;28;20045;-33
2023/06/14 10:54:57;;;;;;;3.10;1.80;;;22.70;64.40;;;;;;5050577;28;20141;-33
2023/06/14 10:57:24;;;;;;;3.45;2.20;;;;;;;;;;5046445;28;20053;-30
2023/06/14 10:59:51;;;;;;;2.83;1.60;;;22.50;64.50;;;;;;5045346;28;20053;-33
2023/06/14 11:02:28;;;;;;;3.38;1.63;;;22.80;47.30;;;;;;5048649;28;20128;-32
2023/06/14 11:04:56;;;;;;;3.70;1.60;;;23.30;64.50;;;;;;5043831;28;20134;-33
2023/06/14 11:07:31;;;;;;;4.72;1.60;;;22.80;47.20;;;;;;5046358;28;20045;-33
2023/06/14 11:10:07;;;;;;;3.10;1.70;;;22.80;47.10;;;;;;5046678;28;20136;-32
2023/06/14 11:12:34;;;;;;;2.13;1.77;;;;;;;;;;5042529;28;20053;-30
2023/06/14 11:15:01;;;;;;;3.90;1.77;;;;;;;;;;5043408;28;20042;-32
2023/06/14 11:17:27;;;;;;;5.53;1.80;;;22.40;64.50;;;;;;5058258;28;20048;-33
2023/06/14 11:20:16;;;;;;;2.60;1.83;;;22.90;47.10;;;;;;5073811;28;20059;-31
2023/06/14 11:22:43;;;;;;;2.95;1.80;;;;;;;;;;5072975;28;20045;-31
2023/06/14 11:25:10;;;;;;;5.78;2.22;;;22.40;64.60;;;;;;5073358;28;20461;-33
2023/06/14 11:27:37;;;;;;;3.42;1.80;;;;;;;;;;5071694;28;20128;-32
2023/06/14 11:30:05;;;;;;;3.53;1.52;;;22.10;63.50;;;;;;5053298;28;20572;-33
2023/06/14 11:32:32;;;;;;;3.10;1.63;;;23.00;64.60;;;;;;5053015;28;20048;-33
2023/06/14 11:34:59;;;;;;;3.38;1.70;;;;;;;;;;5053353;28;20132;-32
2023/06/14 11:37:28;;;;;;;2.83;1.70;;;23.40;64.30;;;;;;5052835;28;20053;-33
2023/06/14 11:39:57;;;;;;;2.67;1.70;;;22.90;47.00;;;;;;5053115;28;20049;-33
2023/06/14 11:42:23;;;;;;;2.00;1.67;;;22.70;63.50;;;;;;5052727;28;20473;-33
2023/06/14 11:44:50;;;;;;;3.03;1.83;;;23.40;65.00;;;;;;5049691;28;20128;-33
2023/06/14 11:47:17;;;;;;;2.35;1.73;;;23.80;64.50;;;;;;5033057;28;20676;-33
2023/06/14 11:49:44;;;;;;;3.40;1.70;;;22.10;53.20;;;;;;5032873;28;20132;-33
2023/06/14 11:52:11;;;;;;;2.58;1.70;;;23.00;52.10;;;;;;5032743;28;20561;-32
2023/06/14 11:54:40;;;;;;;2.30;1.75;;;23.00;47.40;;;;;;5047759;28;20510;-33
2023/06/14 11:57:08;;;;;;;2.47;1.80;;;22.80;64.10;;;;;;5052529;28;20455;-33
2023/06/14 11:59:39;;;;;;;3.85;1.63;;;22.80;63.70;;;;;;5052287;28;20049;-33
2023/06/14 12:02:06;;;;;;;3.42;1.60;;;;;;;;;;5052602;28;20234;-32
2023/06/14 12:04:33;;;;;;;4.43;2.00;;;22.30;63.80;;;;;;5052534;28;20045;-33
2023/06/14 12:07:14;;;;;;;3.20;1.75;;;23.10;47.00;;;;;;5052459;28;20132;-33
2023/06/14 12:09:43;;;;;;;2.13;1.67;;;22.80;46.80;;;;;;5052918;28;20151;-33
2023/06/14 12:12:11;;;;;;;2.50;1.60;;;;;;;;;;5052720;28;20045;-30
2023/06/14 12:14:37;;;;;;;3.05;1.70;;;23.70;65.00;;;;;;5052771;28;20462;-33
2023/06/14 12:17:07;;;;;;;4.63;1.92;;;23.10;46.90;;;;;;5035861;28;20125;-32
2023/06/14 12:19:34;;;;;;;2.55;1.75;;;;;;;;;;5037917;28;20498;-32
2023/06/14 12:22:04;;;;;;;4.60;1.70;;;;;;;;;;5052180;28;20131;-30
2023/06/14 12:24:31;;;;;;;3.10;1.70;;;23.70;52.60;;;;;;5052421;28;20045;-33
2023/06/14 12:27:02;;;;;;;2.10;1.70;;;23.40;64.50;;;;;;5052191;28;20747;-34
2023/06/14 12:29:29;;;;;;;2.95;1.70;;;23.60;63.80;;;;;;5052503;28;20048;-33
2023/06/14 12:31:56;;;;;;;2.15;1.77;;;23.00;63.60;;;;;;5052186;28;20131;-33
2023/06/14 12:34:23;;;;;;;2.78;1.98;;;23.50;64.50;;;;;;5051937;28;20127;-30
2023/06/14 12:36:51;;;;;;;2.35;1.98;;;23.60;64.30;;;;;;5050142;28;20059;-30
2023/06/14 12:39:17;;;;;;;3.97;1.88;;;23.00;63.60;;;;;;5052182;28;20045;-31
2023/06/14 12:41:44;;;;;;;3.22;1.90;;;23.20;63.50;;;;;;5048690;28;20049;-30
2023/06/14 12:44:12;;;;;;;2.88;1.80;;;23.20;46.80;;;;;;5043026;28;20097;-31
2023/06/14 12:46:41;;;;;;;4.18;1.70;;;22.10;48.70;;;;;;5052025;28;20132;-30
2023/06/14 12:49:09;;;;;;;2.35;1.73;;;22.70;63.70;;;;;;5051109;28;20123;-30
2023/06/14 12:51:35;;;;;;;2.17;1.70;;;22.90;60.40;;;;;;5032097;28;20116;-31
2023/06/14 12:54:02;;;;;;;2.50;1.83;;;23.20;64.20;;;;;;5040269;28;20045;-30
2023/06/14 12:56:29;;;;;;;3.65;1.80;;;22.40;62.90;;;;;;5031988;28;20049;-30
2023/06/14 12:58:56;;;;;;;3.33;1.90;;;22.70;57.10;;;;;;5031558;28;20128;-31
2023/06/14 13:01:24;;;;;;;4.10;1.63;;;23.30;63.60;;;;;;5031744;28;20045;-30
2023/06/14 13:03:53;;;;;;;2.97;1.92;;;23.40;64.30;;;;;;5031472;28;20148;-30
2023/06/14 13:06:21;;;;;;;5.72;1.90;;;22.90;58.60;;;;;;5031760;28;20053;-30
2023/06/14 13:08:48;;;;;;;3.20;1.98;;;;;;;;;;5031988;28;20179;-30
2023/06/14 13:11:15;;;;;;;2.78;1.80;;;23.80;63.70;;;;;;5038036;28;20127;-30
2023/06/14 13:13:42;;;;;;;2.92;2.40;;;;;;;;;;5041701;28;20071;-31